Delta, OH (43515)

9:39 PM EST on February 12, 2016 (GMT -0500)
Village of Swanton | | Change Station
CLOSE
Current Station
Personal Weather Station
Location: Swanton, OH
Elevation: 692 ft
Nearby Weather Stations

Elev 692 ft 41.60 °N, 83.89 °W | Updated 4 seconds ago

Mostly Cloudy
Mostly Cloudy
15.1 °F
Feels Like 3 °F
N
9.8
Wind Variable Wind from NNW
Gusts 12.5 mph

Today
High -- | Low -- °F
--% Chance of Precip.
Yesterday
High -- | Low -- °F
Precip. -- in
Pressure 30.18 in
Visibility 10.0 miles
Clouds Few 2900 ft
Few 3600 ft
Windchill 3 °F
Dew Point -8 °F
Humidity 34%
Rainfall 0.00 in
Snow Depth Not available.
7:35 AM 6:05 PM
Waxing Crescent, 26% visible
METAR KTOL 130152Z 29009KT 10SM FEW029 FEW036 M09/M14 A3014 RMK AO2 SLP218 T10941139
Pressure 30.18 in
Visibility 10.0 miles
Clouds Few 2900 ft
Few 3600 ft
Windchill 3 °F
Dew Point -8 °F
Humidity 34%
Rainfall 0.00 in
Snow Depth Not available.
7:35 AM 6:05 PM
Waxing Crescent, 26% visible
METAR KTOL 130152Z 29009KT 10SM FEW029 FEW036 M09/M14 A3014 RMK AO2 SLP218 T10941139

10-Day Weather Forecast

Almanac

Astronomy

Feb. 12, 2016 Rise Set
Actual Time
Civil Twilight
Nautical Twilight
Astronomical Twilight
Moon
Length of Visible Light
Length of Day
Tomorrow will be .
, % of the Moon is Illuminated

Today's Extremes

State Highs State Lows

Community

WunderPhotos

Upload Photos

1,892,464 photos uploaded!

WunderBlog® & News

Nearby

Air Quality

  Air Quality AQ Index Pollutant
Not available.

Snow Depth

Station Depth Elevation

Earthquake Activity

City Distance Mag. Time & Date
Minimum magnitude displayed is 2.5.

Coastal Water Temperatures

Place Temperature

Stations

Nearby Weather Stations

Station Location Temp. Windchill Dew Point Humidity Wind Precip. Elev Updated Type
                   

Watches & Warnings

There are currently no watches in effect.